sensor_id;sensor_type;location;lat;lon;timestamp;P1;durP1;ratioP1;P2;durP2;ratioP2
9007;SDS011;62813;51.424;6.762;2023-06-14T00:00:13;11.83;;;6.13;;
9007;SDS011;62813;51.424;6.762;2023-06-14T00:02:42;11.97;;;5.73;;
9007;SDS011;62813;51.424;6.762;2023-06-14T00:05:08;10.93;;;5.83;;
9007;SDS011;62813;51.424;6.762;2023-06-14T00:07:39;13.60;;;6.77;;
9007;SDS011;62813;51.424;6.762;2023-06-14T00:10:10;18.80;;;6.70;;
9007;SDS011;62813;51.424;6.762;2023-06-14T00:12:38;13.90;;;6.10;;
9007;SDS011;62813;51.424;6.762;2023-06-14T00:15:05;14.97;;;6.43;;
9007;SDS011;62813;51.424;6.762;2023-06-14T00:17:33;12.33;;;6.30;;
9007;SDS011;62813;51.424;6.762;2023-06-14T00:20:01;14.87;;;6.60;;
9007;SDS011;62813;51.424;6.762;2023-06-14T00:22:31;14.60;;;7.07;;
9007;SDS011;62813;51.424;6.762;2023-06-14T00:24:59;14.27;;;6.03;;
9007;SDS011;62813;51.424;6.762;2023-06-14T00:27:36;11.17;;;6.33;;
9007;SDS011;62813;51.424;6.762;2023-06-14T00:30:03;8.57;;;5.90;;
9007;SDS011;62813;51.424;6.762;2023-06-14T00:32:30;7.60;;;6.37;;
9007;SDS011;62813;51.424;6.762;2023-06-14T00:34:57;11.77;;;6.70;;
9007;SDS011;62813;51.424;6.762;2023-06-14T00:37:24;7.50;;;6.03;;
9007;SDS011;62813;51.424;6.762;2023-06-14T00:39:51;7.30;;;6.20;;
9007;SDS011;62813;51.424;6.762;2023-06-14T00:42:26;8.10;;;5.70;;
9007;SDS011;62813;51.424;6.762;2023-06-14T00:44:54;6.60;;;5.90;;
9007;SDS011;62813;51.424;6.762;2023-06-14T00:47:21;6.67;;;6.03;;
9007;SDS011;62813;51.424;6.762;2023-06-14T00:49:51;9.50;;;6.07;;
9007;SDS011;62813;51.424;6.762;2023-06-14T00:52:19;8.10;;;5.97;;
9007;SDS011;62813;51.424;6.762;2023-06-14T00:54:47;6.30;;;5.40;;
9007;SDS011;62813;51.424;6.762;2023-06-14T00:57:15;7.30;;;5.60;;
9007;SDS011;62813;51.424;6.762;2023-06-14T00:59:43;7.40;;;6.17;;
9007;SDS011;62813;51.424;6.762;2023-06-14T01:02:12;7.50;;;6.30;;
9007;SDS011;62813;51.424;6.762;2023-06-14T01:04:42;6.80;;;6.00;;
9007;SDS011;62813;51.424;6.762;2023-06-14T01:07:15;8.17;;;5.20;;
9007;SDS011;62813;51.424;6.762;2023-06-14T01:15:20;6.00;;;5.37;;
9007;SDS011;62813;51.424;6.762;2023-06-14T01:17:48;8.07;;;5.40;;
9007;SDS011;62813;51.424;6.762;2023-06-14T01:20:19;5.50;;;5.00;;
9007;SDS011;62813;51.424;6.762;2023-06-14T01:22:51;8.07;;;5.30;;
9007;SDS011;62813;51.424;6.762;2023-06-14T01:25:21;6.47;;;5.40;;
9007;SDS011;62813;51.424;6.762;2023-06-14T01:27:50;13.67;;;6.07;;
9007;SDS011;62813;51.424;6.762;2023-06-14T01:30:20;8.97;;;5.87;;
9007;SDS011;62813;51.424;6.762;2023-06-14T01:32:49;9.00;;;5.27;;
9007;SDS011;62813;51.424;6.762;2023-06-14T01:35:17;8.43;;;5.70;;
9007;SDS011;62813;51.424;6.762;2023-06-14T01:37:44;12.03;;;5.70;;
9007;SDS011;62813;51.424;6.762;2023-06-14T01:40:14;11.67;;;5.47;;
9007;SDS011;62813;51.424;6.762;2023-06-14T01:42:43;11.03;;;5.50;;
9007;SDS011;62813;51.424;6.762;2023-06-14T01:45:12;11.00;;;5.33;;
9007;SDS011;62813;51.424;6.762;2023-06-14T01:47:40;6.63;;;4.87;;
9007;SDS011;62813;51.424;6.762;2023-06-14T01:50:08;9.20;;;5.70;;
9007;SDS011;62813;51.424;6.762;2023-06-14T01:52:36;8.47;;;5.23;;
9007;SDS011;62813;51.424;6.762;2023-06-14T01:55:04;5.77;;;4.93;;
9007;SDS011;62813;51.424;6.762;2023-06-14T01:57:31;7.50;;;5.27;;
9007;SDS011;62813;51.424;6.762;2023-06-14T01:59:58;6.43;;;5.00;;
9007;SDS011;62813;51.424;6.762;2023-06-14T02:02:24;8.20;;;5.20;;
9007;SDS011;62813;51.424;6.762;2023-06-14T02:04:51;7.07;;;5.33;;
9007;SDS011;62813;51.424;6.762;2023-06-14T02:07:18;8.53;;;5.77;;
9007;SDS011;62813;51.424;6.762;2023-06-14T02:09:45;7.73;;;5.37;;
9007;SDS011;62813;51.424;6.762;2023-06-14T02:12:11;7.27;;;5.20;;
9007;SDS011;62813;51.424;6.762;2023-06-14T02:14:38;6.57;;;5.00;;
9007;SDS011;62813;51.424;6.762;2023-06-14T02:17:05;6.10;;;5.03;;
9007;SDS011;62813;51.424;6.762;2023-06-14T02:19:32;11.40;;;4.80;;
9007;SDS011;62813;51.424;6.762;2023-06-14T02:21:59;9.13;;;5.27;;
9007;SDS011;62813;51.424;6.762;2023-06-14T02:24:26;7.00;;;4.67;;
9007;SDS011;62813;51.424;6.762;2023-06-14T02:26:53;10.47;;;5.13;;
9007;SDS011;62813;51.424;6.762;2023-06-14T02:29:20;9.20;;;4.80;;
9007;SDS011;62813;51.424;6.762;2023-06-14T02:31:47;9.30;;;5.87;;
9007;SDS011;62813;51.424;6.762;2023-06-14T02:34:15;17.17;;;6.27;;
9007;SDS011;62813;51.424;6.762;2023-06-14T02:36:44;18.13;;;5.77;;
9007;SDS011;62813;51.424;6.762;2023-06-14T02:39:11;10.77;;;6.13;;
9007;SDS011;62813;51.424;6.762;2023-06-14T02:41:39;16.43;;;5.07;;
9007;SDS011;62813;51.424;6.762;2023-06-14T02:44:06;11.37;;;5.77;;
9007;SDS011;62813;51.424;6.762;2023-06-14T02:46:33;7.53;;;5.10;;
9007;SDS011;62813;51.424;6.762;2023-06-14T02:49:00;12.37;;;5.37;;
9007;SDS011;62813;51.424;6.762;2023-06-14T02:51:27;10.27;;;6.00;;
9007;SDS011;62813;51.424;6.762;2023-06-14T02:53:53;8.20;;;5.20;;
9007;SDS011;62813;51.424;6.762;2023-06-14T02:56:20;11.23;;;5.13;;
9007;SDS011;62813;51.424;6.762;2023-06-14T02:58:49;7.63;;;4.80;;
9007;SDS011;62813;51.424;6.762;2023-06-14T03:01:16;12.07;;;4.87;;
9007;SDS011;62813;51.424;6.762;2023-06-14T03:03:43;9.20;;;4.90;;
9007;SDS011;62813;51.424;6.762;2023-06-14T03:06:10;7.47;;;5.03;;
9007;SDS011;62813;51.424;6.762;2023-06-14T03:08:40;6.13;;;4.33;;
9007;SDS011;62813;51.424;6.762;2023-06-14T03:11:08;8.30;;;4.80;;
9007;SDS011;62813;51.424;6.762;2023-06-14T03:13:35;6.33;;;4.53;;
9007;SDS011;62813;51.424;6.762;2023-06-14T03:16:01;6.40;;;5.00;;
9007;SDS011;62813;51.424;6.762;2023-06-14T03:18:31;5.30;;;4.80;;
9007;SDS011;62813;51.424;6.762;2023-06-14T03:21:02;8.10;;;4.53;;
9007;SDS011;62813;51.424;6.762;2023-06-14T03:23:29;8.20;;;6.37;;
9007;SDS011;62813;51.424;6.762;2023-06-14T03:25:56;9.47;;;4.90;;
9007;SDS011;62813;51.424;6.762;2023-06-14T03:28:23;8.17;;;4.73;;
9007;SDS011;62813;51.424;6.762;2023-06-14T03:30:49;7.10;;;4.70;;
9007;SDS011;62813;51.424;6.762;2023-06-14T03:33:16;5.40;;;4.80;;
9007;SDS011;62813;51.424;6.762;2023-06-14T03:35:43;6.80;;;4.83;;
9007;SDS011;62813;51.424;6.762;2023-06-14T03:38:10;8.63;;;4.63;;
9007;SDS011;62813;51.424;6.762;2023-06-14T03:40:37;4.97;;;4.30;;
9007;SDS011;62813;51.424;6.762;2023-06-14T03:43:04;6.87;;;4.80;;
9007;SDS011;62813;51.424;6.762;2023-06-14T03:45:30;7.20;;;4.97;;
9007;SDS011;62813;51.424;6.762;2023-06-14T03:47:57;6.90;;;5.30;;
9007;SDS011;62813;51.424;6.762;2023-06-14T03:50:24;6.67;;;4.97;;
9007;SDS011;62813;51.424;6.762;2023-06-14T03:52:51;5.63;;;4.40;;
9007;SDS011;62813;51.424;6.762;2023-06-14T03:55:18;6.90;;;4.60;;
9007;SDS011;62813;51.424;6.762;2023-06-14T03:57:48;5.47;;;4.37;;
9007;SDS011;62813;51.424;6.762;2023-06-14T04:00:15;6.50;;;4.33;;
9007;SDS011;62813;51.424;6.762;2023-06-14T04:02:42;8.87;;;6.37;;
9007;SDS011;62813;51.424;6.762;2023-06-14T04:05:10;7.23;;;4.87;;
9007;SDS011;62813;51.424;6.762;2023-06-14T04:07:38;7.60;;;5.07;;
9007;SDS011;62813;51.424;6.762;2023-06-14T04:10:12;4.53;;;4.13;;
9007;SDS011;62813;51.424;6.762;2023-06-14T04:12:39;7.23;;;4.70;;
9007;SDS011;62813;51.424;6.762;2023-06-14T04:15:09;6.50;;;4.57;;
9007;SDS011;62813;51.424;6.762;2023-06-14T04:17:47;7.10;;;4.30;;
9007;SDS011;62813;51.424;6.762;2023-06-14T04:20:14;6.07;;;4.60;;
9007;SDS011;62813;51.424;6.762;2023-06-14T04:22:40;7.03;;;4.50;;
9007;SDS011;62813;51.424;6.762;2023-06-14T04:25:07;5.40;;;4.03;;
9007;SDS011;62813;51.424;6.762;2023-06-14T04:27:34;5.80;;;4.20;;
9007;SDS011;62813;51.424;6.762;2023-06-14T04:30:03;9.07;;;4.50;;
9007;SDS011;62813;51.424;6.762;2023-06-14T04:32:30;7.40;;;4.23;;
9007;SDS011;62813;51.424;6.762;2023-06-14T04:35:00;7.30;;;4.07;;
9007;SDS011;62813;51.424;6.762;2023-06-14T04:37:30;5.43;;;4.20;;
9007;SDS011;62813;51.424;6.762;2023-06-14T04:39:57;8.40;;;4.60;;
9007;SDS011;62813;51.424;6.762;2023-06-14T04:42:25;9.00;;;4.60;;
9007;SDS011;62813;51.424;6.762;2023-06-14T04:44:56;9.00;;;4.13;;
9007;SDS011;62813;51.424;6.762;2023-06-14T04:47:23;8.30;;;4.30;;
9007;SDS011;62813;51.424;6.762;2023-06-14T04:49:59;5.50;;;4.00;;
9007;SDS011;62813;51.424;6.762;2023-06-14T04:52:27;8.37;;;4.43;;
9007;SDS011;62813;51.424;6.762;2023-06-14T04:54:56;7.47;;;4.20;;
9007;SDS011;62813;51.424;6.762;2023-06-14T04:57:23;4.80;;;4.03;;
9007;SDS011;62813;51.424;6.762;2023-06-14T04:59:51;7.47;;;4.23;;
9007;SDS011;62813;51.424;6.762;2023-06-14T05:02:22;11.83;;;4.57;;
9007;SDS011;62813;51.424;6.762;2023-06-14T05:04:52;6.73;;;4.30;;
9007;SDS011;62813;51.424;6.762;2023-06-14T05:07:20;6.27;;;3.80;;
9007;SDS011;62813;51.424;6.762;2023-06-14T05:09:46;6.97;;;4.27;;
9007;SDS011;62813;51.424;6.762;2023-06-14T05:12:13;7.10;;;3.77;;
9007;SDS011;62813;51.424;6.762;2023-06-14T05:14:40;11.97;;;4.37;;
9007;SDS011;62813;51.424;6.762;2023-06-14T05:17:06;6.57;;;3.97;;
9007;SDS011;62813;51.424;6.762;2023-06-14T05:19:33;6.00;;;3.60;;
9007;SDS011;62813;51.424;6.762;2023-06-14T05:22:00;8.87;;;4.00;;
9007;SDS011;62813;51.424;6.762;2023-06-14T05:24:26;9.67;;;4.30;;
9007;SDS011;62813;51.424;6.762;2023-06-14T05:26:54;10.60;;;4.57;;
9007;SDS011;62813;51.424;6.762;2023-06-14T05:29:21;8.40;;;4.10;;
9007;SDS011;62813;51.424;6.762;2023-06-14T05:31:48;11.97;;;4.70;;
9007;SDS011;62813;51.424;6.762;2023-06-14T05:34:15;6.07;;;4.30;;
9007;SDS011;62813;51.424;6.762;2023-06-14T05:36:41;7.33;;;4.33;;
9007;SDS011;62813;51.424;6.762;2023-06-14T05:39:08;6.13;;;3.97;;
9007;SDS011;62813;51.424;6.762;2023-06-14T05:41:35;7.20;;;3.73;;
9007;SDS011;62813;51.424;6.762;2023-06-14T05:44:02;9.33;;;4.60;;
9007;SDS011;62813;51.424;6.762;2023-06-14T05:46:29;12.63;;;4.47;;
9007;SDS011;62813;51.424;6.762;2023-06-14T05:48:56;7.27;;;4.57;;
9007;SDS011;62813;51.424;6.762;2023-06-14T05:51:22;5.93;;;4.47;;
9007;SDS011;62813;51.424;6.762;2023-06-14T05:53:52;8.17;;;4.20;;
9007;SDS011;62813;51.424;6.762;2023-06-14T05:56:19;9.10;;;3.90;;
9007;SDS011;62813;51.424;6.762;2023-06-14T05:58:46;9.47;;;4.30;;
9007;SDS011;62813;51.424;6.762;2023-06-14T06:01:13;7.90;;;4.20;;
9007;SDS011;62813;51.424;6.762;2023-06-14T06:03:40;7.33;;;3.93;;
9007;SDS011;62813;51.424;6.762;2023-06-14T06:06:08;7.77;;;3.70;;
9007;SDS011;62813;51.424;6.762;2023-06-14T06:08:38;8.33;;;3.73;;
9007;SDS011;62813;51.424;6.762;2023-06-14T06:11:05;9.17;;;4.40;;
9007;SDS011;62813;51.424;6.762;2023-06-14T06:13:31;12.63;;;4.10;;
9007;SDS011;62813;51.424;6.762;2023-06-14T06:15:59;7.50;;;4.03;;
9007;SDS011;62813;51.424;6.762;2023-06-14T06:18:25;14.63;;;4.20;;
9007;SDS011;62813;51.424;6.762;2023-06-14T06:20:52;6.40;;;3.70;;
9007;SDS011;62813;51.424;6.762;2023-06-14T06:23:19;8.00;;;3.83;;
9007;SDS011;62813;51.424;6.762;2023-06-14T06:25:46;9.40;;;3.80;;
9007;SDS011;62813;51.424;6.762;2023-06-14T06:28:13;9.13;;;3.57;;
9007;SDS011;62813;51.424;6.762;2023-06-14T06:30:40;19.23;;;11.63;;
9007;SDS011;62813;51.424;6.762;2023-06-14T06:33:07;6.10;;;4.20;;
9007;SDS011;62813;51.424;6.762;2023-06-14T06:35:33;8.90;;;3.67;;
9007;SDS011;62813;51.424;6.762;2023-06-14T06:38:00;10.13;;;4.00;;
9007;SDS011;62813;51.424;6.762;2023-06-14T06:40:27;7.63;;;3.50;;
9007;SDS011;62813;51.424;6.762;2023-06-14T06:42:54;9.07;;;3.80;;
9007;SDS011;62813;51.424;6.762;2023-06-14T06:45:21;6.93;;;3.47;;
9007;SDS011;62813;51.424;6.762;2023-06-14T06:47:51;10.03;;;4.13;;
9007;SDS011;62813;51.424;6.762;2023-06-14T06:50:18;8.87;;;3.80;;
9007;SDS011;62813;51.424;6.762;2023-06-14T06:52:46;8.77;;;4.13;;
9007;SDS011;62813;51.424;6.762;2023-06-14T06:55:13;9.50;;;3.33;;
9007;SDS011;62813;51.424;6.762;2023-06-14T06:57:40;6.93;;;3.13;;
9007;SDS011;62813;51.424;6.762;2023-06-14T07:00:07;10.73;;;2.80;;
9007;SDS011;62813;51.424;6.762;2023-06-14T07:02:36;7.30;;;2.97;;
9007;SDS011;62813;51.424;6.762;2023-06-14T07:05:03;6.07;;;3.03;;
9007;SDS011;62813;51.424;6.762;2023-06-14T07:07:31;8.20;;;2.87;;
9007;SDS011;62813;51.424;6.762;2023-06-14T07:09:58;6.13;;;2.40;;
9007;SDS011;62813;51.424;6.762;2023-06-14T07:12:25;7.60;;;2.50;;
9007;SDS011;62813;51.424;6.762;2023-06-14T07:14:52;2.30;;;1.90;;
9007;SDS011;62813;51.424;6.762;2023-06-14T07:17:19;5.60;;;2.23;;
9007;SDS011;62813;51.424;6.762;2023-06-14T07:19:45;5.10;;;2.13;;
9007;SDS011;62813;51.424;6.762;2023-06-14T07:22:12;4.00;;;2.00;;
9007;SDS011;62813;51.424;6.762;2023-06-14T07:24:39;5.43;;;2.40;;
9007;SDS011;62813;51.424;6.762;2023-06-14T07:27:07;7.50;;;2.50;;
9007;SDS011;62813;51.424;6.762;2023-06-14T07:29:34;4.53;;;2.20;;
9007;SDS011;62813;51.424;6.762;2023-06-14T07:32:01;5.43;;;2.00;;
9007;SDS011;62813;51.424;6.762;2023-06-14T07:34:28;9.77;;;2.33;;
9007;SDS011;62813;51.424;6.762;2023-06-14T07:36:54;3.73;;;2.23;;
9007;SDS011;62813;51.424;6.762;2023-06-14T07:39:21;6.20;;;2.10;;
9007;SDS011;62813;51.424;6.762;2023-06-14T07:41:48;3.93;;;2.40;;
9007;SDS011;62813;51.424;6.762;2023-06-14T07:44:15;7.37;;;2.20;;
9007;SDS011;62813;51.424;6.762;2023-06-14T07:46:42;5.17;;;2.57;;
9007;SDS011;62813;51.424;6.762;2023-06-14T07:49:09;9.87;;;2.47;;
9007;SDS011;62813;51.424;6.762;2023-06-14T07:51:36;4.73;;;2.20;;
9007;SDS011;62813;51.424;6.762;2023-06-14T07:54:04;6.97;;;2.57;;
9007;SDS011;62813;51.424;6.762;2023-06-14T07:56:33;3.67;;;2.10;;
9007;SDS011;62813;51.424;6.762;2023-06-14T07:59:00;5.37;;;2.23;;
9007;SDS011;62813;51.424;6.762;2023-06-14T08:01:27;6.60;;;2.30;;
9007;SDS011;62813;51.424;6.762;2023-06-14T08:03:54;4.60;;;2.53;;
9007;SDS011;62813;51.424;6.762;2023-06-14T08:06:21;5.90;;;2.50;;
9007;SDS011;62813;51.424;6.762;2023-06-14T08:08:48;5.30;;;2.30;;
9007;SDS011;62813;51.424;6.762;2023-06-14T08:11:15;5.73;;;2.47;;
9007;SDS011;62813;51.424;6.762;2023-06-14T08:13:42;3.00;;;2.10;;
9007;SDS011;62813;51.424;6.762;2023-06-14T08:16:09;4.47;;;2.23;;
9007;SDS011;62813;51.424;6.762;2023-06-14T08:18:35;4.50;;;2.53;;
9007;SDS011;62813;51.424;6.762;2023-06-14T08:21:02;2.60;;;2.33;;
9007;SDS011;62813;51.424;6.762;2023-06-14T08:23:29;5.13;;;2.47;;
9007;SDS011;62813;51.424;6.762;2023-06-14T08:25:56;4.83;;;2.37;;
9007;SDS011;62813;51.424;6.762;2023-06-14T08:28:23;8.40;;;2.47;;
9007;SDS011;62813;51.424;6.762;2023-06-14T08:30:50;3.33;;;2.23;;
9007;SDS011;62813;51.424;6.762;2023-06-14T08:33:17;6.60;;;2.30;;
9007;SDS011;62813;51.424;6.762;2023-06-14T08:35:44;10.13;;;2.30;;
9007;SDS011;62813;51.424;6.762;2023-06-14T08:38:11;7.57;;;2.37;;
9007;SDS011;62813;51.424;6.762;2023-06-14T08:40:38;4.33;;;2.23;;
9007;SDS011;62813;51.424;6.762;2023-06-14T08:43:08;4.27;;;2.20;;
9007;SDS011;62813;51.424;6.762;2023-06-14T08:45:35;3.97;;;1.97;;
9007;SDS011;62813;51.424;6.762;2023-06-14T08:48:02;7.97;;;2.23;;
9007;SDS011;62813;51.424;6.762;2023-06-14T08:50:32;6.07;;;2.20;;
9007;SDS011;62813;51.424;6.762;2023-06-14T08:53:01;4.67;;;2.17;;
9007;SDS011;62813;51.424;6.762;2023-06-14T08:55:30;5.40;;;2.20;;
9007;SDS011;62813;51.424;6.762;2023-06-14T08:58:02;3.80;;;2.13;;
9007;SDS011;62813;51.424;6.762;2023-06-14T09:00:31;2.73;;;2.30;;
9007;SDS011;62813;51.424;6.762;2023-06-14T09:03:00;3.23;;;2.30;;
9007;SDS011;62813;51.424;6.762;2023-06-14T09:05:27;4.13;;;2.30;;
9007;SDS011;62813;51.424;6.762;2023-06-14T09:07:55;6.07;;;2.33;;
9007;SDS011;62813;51.424;6.762;2023-06-14T09:10:23;5.53;;;2.53;;
9007;SDS011;62813;51.424;6.762;2023-06-14T09:12:54;5.90;;;2.50;;
9007;SDS011;62813;51.424;6.762;2023-06-14T09:15:21;2.40;;;2.20;;
9007;SDS011;62813;51.424;6.762;2023-06-14T09:17:48;5.63;;;2.20;;
9007;SDS011;62813;51.424;6.762;2023-06-14T09:20:15;4.27;;;2.47;;
9007;SDS011;62813;51.424;6.762;2023-06-14T09:22:46;3.97;;;2.17;;
9007;SDS011;62813;51.424;6.762;2023-06-14T09:25:13;3.17;;;2.27;;
9007;SDS011;62813;51.424;6.762;2023-06-14T09:28:01;6.10;;;2.23;;
9007;SDS011;62813;51.424;6.762;2023-06-14T09:30:28;5.43;;;2.40;;
9007;SDS011;62813;51.424;6.762;2023-06-14T09:32:55;3.80;;;1.87;;
9007;SDS011;62813;51.424;6.762;2023-06-14T09:35:26;3.47;;;2.00;;
9007;SDS011;62813;51.424;6.762;2023-06-14T09:37:56;4.83;;;2.00;;
9007;SDS011;62813;51.424;6.762;2023-06-14T09:40:22;3.07;;;1.93;;
9007;SDS011;62813;51.424;6.762;2023-06-14T09:42:49;3.93;;;2.00;;
9007;SDS011;62813;51.424;6.762;2023-06-14T09:45:18;4.90;;;1.97;;
9007;SDS011;62813;51.424;6.762;2023-06-14T09:47:51;3.20;;;1.97;;
9007;SDS011;62813;51.424;6.762;2023-06-14T09:50:32;3.20;;;1.90;;
9007;SDS011;62813;51.424;6.762;2023-06-14T09:53:03;1.87;;;1.63;;
9007;SDS011;62813;51.424;6.762;2023-06-14T09:55:37;3.20;;;1.80;;
9007;SDS011;62813;51.424;6.762;2023-06-14T09:58:05;4.40;;;1.70;;
9007;SDS011;62813;51.424;6.762;2023-06-14T10:00:34;3.23;;;1.77;;
9007;SDS011;62813;51.424;6.762;2023-06-14T10:03:11;7.57;;;1.80;;
9007;SDS011;62813;51.424;6.762;2023-06-14T10:05:45;6.83;;;1.80;;
9007;SDS011;62813;51.424;6.762;2023-06-14T10:08:14;2.13;;;1.70;;
9007;SDS011;62813;51.424;6.762;2023-06-14T10:10:43;2.13;;;1.50;;
9007;SDS011;62813;51.424;6.762;2023-06-14T10:13:11;1.77;;;1.60;;
9007;SDS011;62813;51.424;6.762;2023-06-14T10:15:41;4.50;;;1.90;;
9007;SDS011;62813;51.424;6.762;2023-06-14T10:18:28;3.40;;;1.80;;
9007;SDS011;62813;51.424;6.762;2023-06-14T10:21:03;5.70;;;1.90;;
9007;SDS011;62813;51.424;6.762;2023-06-14T10:23:55;2.60;;;1.30;;
9007;SDS011;62813;51.424;6.762;2023-06-14T10:26:26;2.40;;;1.50;;
9007;SDS011;62813;51.424;6.762;2023-06-14T10:28:57;4.67;;;1.60;;
9007;SDS011;62813;51.424;6.762;2023-06-14T10:34:12;4.10;;;1.60;;
9007;SDS011;62813;51.424;6.762;2023-06-14T10:37:01;4.93;;;1.67;;
9007;SDS011;62813;51.424;6.762;2023-06-14T10:39:29;4.10;;;1.70;;
9007;SDS011;62813;51.424;6.762;2023-06-14T10:41:56;4.40;;;1.57;;
9007;SDS011;62813;51.424;6.762;2023-06-14T10:46:54;2.33;;;1.60;;
9007;SDS011;62813;51.424;6.762;2023-06-14T10:49:36;2.17;;;1.47;;
9007;SDS011;62813;51.424;6.762;2023-06-14T10:52:10;1.97;;;1.37;;
9007;SDS011;62813;51.424;6.762;2023-06-14T10:57:28;1.90;;;1.30;;
9007;SDS011;62813;51.424;6.762;2023-06-14T10:59:54;5.80;;;1.27;;
9007;SDS011;62813;51.424;6.762;2023-06-14T11:04:52;4.57;;;1.20;;
9007;SDS011;62813;51.424;6.762;2023-06-14T11:09:51;1.60;;;1.10;;
9007;SDS011;62813;51.424;6.762;2023-06-14T11:12:45;1.87;;;1.10;;
9007;SDS011;62813;51.424;6.762;2023-06-14T11:15:14;3.73;;;1.40;;
9007;SDS011;62813;51.424;6.762;2023-06-14T11:17:51;5.17;;;1.10;;
9007;SDS011;62813;51.424;6.762;2023-06-14T11:20:19;3.70;;;1.50;;
9007;SDS011;62813;51.424;6.762;2023-06-14T11:22:49;3.17;;;1.30;;
9007;SDS011;62813;51.424;6.762;2023-06-14T11:25:16;4.17;;;1.90;;
9007;SDS011;62813;51.424;6.762;2023-06-14T11:27:43;7.50;;;2.20;;
9007;SDS011;62813;51.424;6.762;2023-06-14T11:30:11;2.63;;;1.67;;
9007;SDS011;62813;51.424;6.762;2023-06-14T11:32:39;3.33;;;1.80;;
9007;SDS011;62813;51.424;6.762;2023-06-14T11:35:07;5.40;;;1.80;;
9007;SDS011;62813;51.424;6.762;2023-06-14T11:37:36;4.60;;;1.53;;
9007;SDS011;62813;51.424;6.762;2023-06-14T11:40:04;4.43;;;1.60;;
9007;SDS011;62813;51.424;6.762;2023-06-14T11:42:36;5.90;;;1.63;;
9007;SDS011;62813;51.424;6.762;2023-06-14T11:45:04;5.33;;;1.77;;
9007;SDS011;62813;51.424;6.762;2023-06-14T11:47:35;7.07;;;1.67;;
9007;SDS011;62813;51.424;6.762;2023-06-14T11:50:03;5.13;;;2.93;;
9007;SDS011;62813;51.424;6.762;2023-06-14T11:52:32;7.47;;;3.03;;
9007;SDS011;62813;51.424;6.762;2023-06-14T11:54:59;7.37;;;1.90;;
9007;SDS011;62813;51.424;6.762;2023-06-14T11:57:26;5.50;;;1.90;;
9007;SDS011;62813;51.424;6.762;2023-06-14T11:59:54;2.20;;;1.63;;
9007;SDS011;62813;51.424;6.762;2023-06-14T12:02:21;4.43;;;2.00;;
9007;SDS011;62813;51.424;6.762;2023-06-14T12:04:50;5.17;;;1.80;;
9007;SDS011;62813;51.424;6.762;2023-06-14T12:07:17;6.70;;;1.80;;
9007;SDS011;62813;51.424;6.762;2023-06-14T12:12:25;3.17;;;1.60;;
9007;SDS011;62813;51.424;6.762;2023-06-14T12:14:52;4.93;;;1.43;;
9007;SDS011;62813;51.424;6.762;2023-06-14T12:17:19;4.53;;;1.87;;
9007;SDS011;62813;51.424;6.762;2023-06-14T12:19:46;4.93;;;1.53;;
9007;SDS011;62813;51.424;6.762;2023-06-14T12:22:16;2.00;;;1.60;;
9007;SDS011;62813;51.424;6.762;2023-06-14T12:24:43;1.87;;;1.60;;
9007;SDS011;62813;51.424;6.762;2023-06-14T12:27:11;2.40;;;1.53;;
9007;SDS011;62813;51.424;6.762;2023-06-14T12:29:42;3.97;;;1.60;;
9007;SDS011;62813;51.424;6.762;2023-06-14T12:32:11;3.07;;;1.63;;
9007;SDS011;62813;51.424;6.762;2023-06-14T12:34:38;2.70;;;1.63;;
9007;SDS011;62813;51.424;6.762;2023-06-14T12:37:05;2.17;;;1.57;;
9007;SDS011;62813;51.424;6.762;2023-06-14T12:39:32;6.07;;;2.03;;
9007;SDS011;62813;51.424;6.762;2023-06-14T12:42:00;5.67;;;2.10;;
9007;SDS011;62813;51.424;6.762;2023-06-14T12:44:26;3.20;;;1.97;;
9007;SDS011;62813;51.424;6.762;2023-06-14T12:46:53;2.37;;;1.80;;
9007;SDS011;62813;51.424;6.762;2023-06-14T12:49:21;2.00;;;1.47;;
9007;SDS011;62813;51.424;6.762;2023-06-14T12:51:48;4.47;;;1.90;;
9007;SDS011;62813;51.424;6.762;2023-06-14T12:54:14;3.87;;;2.37;;
9007;SDS011;62813;51.424;6.762;2023-06-14T12:56:53;5.30;;;2.43;;
9007;SDS011;62813;51.424;6.762;2023-06-14T12:59:21;6.23;;;4.83;;
9007;SDS011;62813;51.424;6.762;2023-06-14T13:01:48;2.43;;;2.20;;
9007;SDS011;62813;51.424;6.762;2023-06-14T13:04:17;5.20;;;2.07;;
9007;SDS011;62813;51.424;6.762;2023-06-14T13:09:17;6.10;;;2.50;;
9007;SDS011;62813;51.424;6.762;2023-06-14T13:11:44;3.27;;;1.90;;
9007;SDS011;62813;51.424;6.762;2023-06-14T13:14:13;4.73;;;2.23;;
9007;SDS011;62813;51.424;6.762;2023-06-14T13:16:51;3.53;;;1.90;;
9007;SDS011;62813;51.424;6.762;2023-06-14T13:19:18;6.10;;;2.23;;
9007;SDS011;62813;51.424;6.762;2023-06-14T13:21:44;5.80;;;2.20;;
9007;SDS011;62813;51.424;6.762;2023-06-14T13:24:11;3.93;;;2.40;;
9007;SDS011;62813;51.424;6.762;2023-06-14T13:26:38;3.30;;;2.27;;
9007;SDS011;62813;51.424;6.762;2023-06-14T13:29:05;5.73;;;2.30;;
9007;SDS011;62813;51.424;6.762;2023-06-14T13:31:31;7.03;;;2.47;;
9007;SDS011;62813;51.424;6.762;2023-06-14T13:33:59;3.00;;;2.47;;
9007;SDS011;62813;51.424;6.762;2023-06-14T13:36:25;3.43;;;2.27;;
9007;SDS011;62813;51.424;6.762;2023-06-14T13:38:52;4.53;;;2.47;;
9007;SDS011;62813;51.424;6.762;2023-06-14T13:41:21;3.67;;;2.37;;
9007;SDS011;62813;51.424;6.762;2023-06-14T13:43:47;2.87;;;2.20;;
9007;SDS011;62813;51.424;6.762;2023-06-14T13:46:14;10.50;;;3.53;;
9007;SDS011;62813;51.424;6.762;2023-06-14T13:48:41;9.07;;;2.20;;
9007;SDS011;62813;51.424;6.762;2023-06-14T13:51:08;4.77;;;2.63;;
9007;SDS011;62813;51.424;6.762;2023-06-14T13:53:34;3.93;;;2.37;;
9007;SDS011;62813;51.424;6.762;2023-06-14T13:56:02;4.70;;;2.70;;
9007;SDS011;62813;51.424;6.762;2023-06-14T13:58:29;4.43;;;2.30;;
9007;SDS011;62813;51.424;6.762;2023-06-14T14:00:56;2.50;;;2.30;;
9007;SDS011;62813;51.424;6.762;2023-06-14T14:03:23;2.50;;;2.30;;
9007;SDS011;62813;51.424;6.762;2023-06-14T14:05:51;6.13;;;2.30;;
9007;SDS011;62813;51.424;6.762;2023-06-14T14:08:18;4.17;;;1.97;;
9007;SDS011;62813;51.424;6.762;2023-06-14T14:10:44;2.50;;;2.17;;
9007;SDS011;62813;51.424;6.762;2023-06-14T14:13:11;2.50;;;2.20;;
9007;SDS011;62813;51.424;6.762;2023-06-14T14:15:38;4.93;;;2.00;;
9007;SDS011;62813;51.424;6.762;2023-06-14T14:18:05;2.63;;;2.10;;
9007;SDS011;62813;51.424;6.762;2023-06-14T14:20:32;9.53;;;2.50;;
9007;SDS011;62813;51.424;6.762;2023-06-14T14:22:59;4.47;;;2.37;;
9007;SDS011;62813;51.424;6.762;2023-06-14T14:25:26;5.03;;;1.80;;
9007;SDS011;62813;51.424;6.762;2023-06-14T14:27:53;5.30;;;2.60;;
9007;SDS011;62813;51.424;6.762;2023-06-14T14:30:20;6.53;;;2.40;;
9007;SDS011;62813;51.424;6.762;2023-06-14T14:32:50;2.83;;;2.07;;
9007;SDS011;62813;51.424;6.762;2023-06-14T14:35:17;3.97;;;2.60;;
9007;SDS011;62813;51.424;6.762;2023-06-14T14:37:44;3.77;;;2.30;;
9007;SDS011;62813;51.424;6.762;2023-06-14T14:40:11;2.53;;;2.20;;
9007;SDS011;62813;51.424;6.762;2023-06-14T14:42:39;2.93;;;2.40;;
9007;SDS011;62813;51.424;6.762;2023-06-14T14:45:06;3.07;;;2.33;;
9007;SDS011;62813;51.424;6.762;2023-06-14T14:47:33;4.50;;;2.30;;
9007;SDS011;62813;51.424;6.762;2023-06-14T14:49:59;3.97;;;2.30;;
9007;SDS011;62813;51.424;6.762;2023-06-14T14:52:26;3.97;;;2.40;;
9007;SDS011;62813;51.424;6.762;2023-06-14T14:54:53;4.53;;;2.40;;
9007;SDS011;62813;51.424;6.762;2023-06-14T14:57:20;2.53;;;2.20;;
9007;SDS011;62813;51.424;6.762;2023-06-14T14:59:48;2.80;;;2.53;;
9007;SDS011;62813;51.424;6.762;2023-06-14T15:02:14;5.37;;;2.30;;
9007;SDS011;62813;51.424;6.762;2023-06-14T15:04:42;2.93;;;2.17;;
9007;SDS011;62813;51.424;6.762;2023-06-14T15:07:08;2.53;;;2.33;;
9007;SDS011;62813;51.424;6.762;2023-06-14T15:09:35;3.90;;;2.40;;
9007;SDS011;62813;51.424;6.762;2023-06-14T15:12:02;6.40;;;2.73;;
9007;SDS011;62813;51.424;6.762;2023-06-14T15:14:29;3.90;;;2.70;;
9007;SDS011;62813;51.424;6.762;2023-06-14T15:16:56;4.87;;;2.40;;
9007;SDS011;62813;51.424;6.762;2023-06-14T15:19:24;3.70;;;2.30;;
9007;SDS011;62813;51.424;6.762;2023-06-14T15:21:51;4.07;;;2.20;;
9007;SDS011;62813;51.424;6.762;2023-06-14T15:24:17;6.00;;;2.43;;
9007;SDS011;62813;51.424;6.762;2023-06-14T15:27:03;5.03;;;2.83;;
9007;SDS011;62813;51.424;6.762;2023-06-14T15:29:30;3.13;;;2.83;;